createdAt,value
2023-01-10T00:01:42.419Z,73.62
2023-01-10T00:04:15.635Z,73.52
2023-01-10T00:06:49.004Z,73.72
2023-01-10T00:09:22.138Z,73.48
2023-01-10T00:12:16.182Z,73.66
2023-01-10T00:14:50.506Z,73.82
2023-01-10T00:17:25.118Z,73.29
2023-01-10T00:20:00.953Z,73.27
2023-01-10T00:22:34.341Z,73.23
2023-01-10T00:25:08.066Z,73.19
2023-01-10T00:27:43.950Z,73.21
2023-01-10T00:30:19.072Z,73.03
2023-01-10T00:32:54.492Z,73.24
2023-01-10T00:35:27.570Z,73.46
2023-01-10T00:38:05.873Z,72.75
2023-01-10T00:40:41.808Z,73.43
2023-01-10T00:43:32.510Z,73.13
2023-01-10T00:46:05.611Z,72.61
2023-01-10T00:48:41.216Z,73.09
2023-01-10T00:51:14.022Z,73.11
2023-01-10T00:53:47.013Z,73.57
2023-01-10T00:56:19.863Z,73.09
2023-01-10T00:58:52.866Z,73.05
2023-01-10T01:01:25.805Z,73.54
2023-01-10T01:04:00.529Z,73.60
2023-01-10T01:06:33.536Z,72.93
2023-01-10T01:09:06.918Z,73.26
2023-01-10T01:11:40.184Z,72.96
2023-01-10T01:14:13.260Z,73.31
2023-01-10T01:16:46.466Z,73.23
2023-01-10T01:19:21.101Z,73.06
2023-01-10T01:21:56.711Z,73.26
2023-01-10T01:24:29.786Z,73.24
2023-01-10T01:27:02.822Z,73.29
2023-01-10T01:29:43.080Z,73.19
2023-01-10T01:32:16.866Z,73.19
2023-01-10T01:34:51.601Z,73.44
2023-01-10T01:37:24.751Z,73.37
2023-01-10T01:39:59.386Z,72.99
2023-01-10T01:42:34.558Z,72.79
2023-01-10T01:45:41.143Z,72.97
2023-01-10T01:48:20.849Z,73.03
2023-01-10T01:51:05.538Z,73.10
2023-01-10T01:53:45.720Z,73.16
2023-01-10T01:56:22.817Z,73.24
2023-01-10T01:59:00.180Z,73.13
2023-01-10T02:01:35.421Z,73.36
2023-01-10T02:04:15.123Z,73.34
2023-01-10T02:06:54.927Z,72.95
2023-01-10T02:09:34.452Z,72.91
2023-01-10T02:12:08.340Z,73.01
2023-01-10T02:14:43.187Z,72.39
2023-01-10T02:17:16.575Z,72.94
2023-01-10T02:19:54.629Z,73.02
2023-01-10T02:23:15.177Z,72.77
2023-01-10T02:26:21.628Z,72.83
2023-01-10T02:29:20.825Z,73.13
2023-01-10T02:32:12.809Z,72.80
2023-01-10T02:34:58.620Z,73.03
2023-01-10T02:37:42.830Z,72.86
2023-01-10T02:40:23.998Z,72.78
2023-01-10T02:43:02.396Z,72.88
2023-01-10T02:45:39.858Z,72.73
2023-01-10T02:48:14.140Z,73.09
2023-01-10T02:50:54.342Z,72.56
2023-01-10T02:53:31.018Z,73.29
2023-01-10T02:56:30.385Z,72.47
2023-01-10T02:59:30.217Z,72.89
2023-01-10T03:02:14.166Z,72.67
2023-01-10T03:04:55.537Z,72.56
2023-01-10T03:07:36.627Z,72.97
2023-01-10T03:10:18.036Z,72.38
2023-01-10T03:12:57.226Z,72.39
2023-01-10T03:15:35.594Z,72.62
2023-01-10T03:18:13.968Z,72.99
2023-01-10T03:20:50.747Z,72.96
2023-01-10T03:23:26.449Z,72.53
2023-01-10T03:26:00.651Z,73.24
2023-01-10T03:28:40.113Z,73.01
2023-01-10T03:31:17.871Z,72.77
2023-01-10T03:33:51.550Z,72.83
2023-01-10T03:36:33.271Z,73.20
2023-01-10T03:39:13.647Z,73.14
2023-01-10T03:41:54.251Z,73.00
2023-01-10T03:44:44.966Z,72.89
2023-01-10T03:47:28.090Z,72.91
2023-01-10T03:50:04.486Z,73.11
2023-01-10T03:52:42.276Z,72.59
2023-01-10T03:55:19.739Z,72.91
2023-01-10T03:57:52.972Z,73.18
2023-01-10T04:00:26.530Z,72.99
2023-01-10T04:03:00.240Z,72.82
2023-01-10T04:05:33.175Z,72.87
2023-01-10T04:08:08.947Z,72.47
2023-01-10T04:10:41.866Z,72.50
2023-01-10T04:13:15.291Z,72.89
2023-01-10T04:15:48.033Z,72.99
2023-01-10T04:18:21.174Z,73.03
2023-01-10T04:20:54.653Z,73.13
2023-01-10T04:23:29.288Z,72.77
2023-01-10T04:26:05.495Z,73.23
2023-01-10T04:28:41.617Z,72.72
2023-01-10T04:31:16.336Z,72.53
2023-01-10T04:33:49.326Z,72.45
2023-01-10T04:36:22.459Z,72.96
2023-01-10T04:38:57.060Z,72.94
2023-01-10T04:41:31.070Z,73.06
2023-01-10T04:44:04.325Z,72.90
2023-01-10T04:46:37.456Z,73.33
2023-01-10T04:49:10.687Z,73.04
2023-01-10T04:51:43.959Z,73.21
2023-01-10T04:54:21.397Z,73.26
2023-01-10T04:56:54.589Z,73.50
2023-01-10T04:59:27.514Z,73.22
2023-01-10T05:02:00.982Z,73.51
2023-01-10T05:04:34.085Z,73.20
2023-01-10T05:07:07.269Z,73.27
2023-01-10T05:09:43.780Z,73.13
2023-01-10T05:12:16.817Z,73.27
2023-01-10T05:14:49.974Z,73.74
2023-01-10T05:17:23.248Z,73.69
2023-01-10T05:19:56.697Z,73.39
2023-01-10T05:22:29.709Z,73.68
2023-01-10T05:25:04.534Z,73.24
2023-01-10T05:27:38.064Z,73.66
2023-01-10T05:30:13.292Z,73.24
2023-01-10T05:32:46.480Z,73.34
2023-01-10T05:35:20.114Z,73.33
2023-01-10T05:37:54.052Z,73.33
2023-01-10T05:40:31.823Z,73.39
2023-01-10T05:43:05.025Z,72.99
2023-01-10T05:45:37.918Z,73.43
2023-01-10T05:48:11.351Z,73.23
2023-01-10T05:50:47.383Z,73.41
2023-01-10T05:53:21.141Z,73.65
2023-01-10T05:55:56.987Z,74.10
2023-01-10T05:58:31.072Z,73.56
2023-01-10T06:01:04.070Z,73.80
2023-01-10T06:03:39.754Z,73.45
2023-01-10T06:06:12.685Z,73.60
2023-01-10T06:08:45.520Z,73.52
2023-01-10T06:11:20.112Z,73.41
2023-01-10T06:13:55.944Z,73.60
2023-01-10T06:16:29.170Z,73.47
2023-01-10T06:19:02.217Z,73.85
2023-01-10T06:21:35.726Z,73.63
2023-01-10T06:24:09.703Z,73.60
2023-01-10T06:26:43.952Z,73.79
2023-01-10T06:29:17.221Z,73.51
2023-01-10T06:31:50.245Z,73.85
2023-01-10T06:34:23.369Z,73.70
2023-01-10T06:36:56.974Z,74.05
2023-01-10T06:39:29.821Z,73.62
2023-01-10T06:42:04.700Z,73.50
2023-01-10T06:44:38.453Z,73.60
2023-01-10T06:47:11.359Z,73.67
2023-01-10T06:49:44.253Z,73.43
2023-01-10T06:52:17.193Z,73.59
2023-01-10T06:54:53.064Z,73.79
2023-01-10T06:57:29.966Z,73.63
2023-01-10T07:00:03.671Z,73.74
2023-01-10T07:02:36.595Z,73.61
2023-01-10T07:05:11.464Z,73.75
2023-01-10T07:07:44.560Z,74.19
2023-01-10T07:10:18.161Z,74.17
2023-01-10T07:12:52.299Z,73.75
2023-01-10T07:15:25.742Z,73.53
2023-01-10T07:17:59.088Z,73.57
2023-01-10T07:20:32.058Z,74.11
2023-01-10T07:23:04.811Z,73.92
2023-01-10T07:25:37.947Z,74.05
2023-01-10T07:28:12.602Z,74.23
2023-01-10T07:30:45.920Z,73.87
2023-01-10T07:33:22.467Z,73.92
2023-01-10T07:35:55.483Z,73.82
2023-01-10T07:38:28.353Z,73.67
2023-01-10T07:41:02.783Z,73.49
2023-01-10T07:43:37.125Z,73.95
2023-01-10T07:46:12.779Z,74.17
2023-01-10T07:48:47.073Z,74.05
2023-01-10T07:51:20.550Z,74.05
2023-01-10T07:53:53.559Z,73.93
2023-01-10T07:56:26.359Z,73.91
2023-01-10T07:59:03.703Z,74.30
2023-01-10T08:01:36.870Z,73.87
2023-01-10T08:04:10.753Z,73.81
2023-01-10T08:06:43.963Z,73.46
2023-01-10T08:09:16.681Z,73.80
2023-01-10T08:11:49.401Z,73.74
2023-01-10T08:14:23.586Z,73.94
2023-01-10T08:17:00.641Z,74.22
2023-01-10T08:19:33.547Z,73.89
2023-01-10T08:22:06.408Z,72.99
2023-01-10T08:24:40.656Z,73.73
2023-01-10T08:27:13.610Z,73.76
2023-01-10T08:29:48.147Z,74.02
2023-01-10T08:32:22.487Z,73.77
2023-01-10T08:34:55.391Z,73.75
2023-01-10T08:37:28.733Z,73.91
2023-01-10T08:40:01.608Z,73.23
2023-01-10T08:42:34.571Z,73.98
2023-01-10T08:45:10.430Z,74.05
2023-01-10T08:47:44.586Z,73.63
2023-01-10T08:50:17.885Z,73.69
2023-01-10T08:52:51.198Z,73.81
2023-01-10T08:55:27.132Z,73.64
2023-01-10T08:58:01.283Z,73.90
2023-01-10T09:00:35.619Z,74.25
2023-01-10T09:03:08.928Z,74.18
2023-01-10T09:05:41.988Z,73.99
2023-01-10T09:08:14.880Z,74.36
2023-01-10T09:10:48.402Z,73.96
2023-01-10T09:13:25.116Z,73.56
2023-01-10T09:15:59.765Z,73.92
2023-01-10T09:18:35.275Z,73.78
2023-01-10T09:21:08.135Z,73.80
2023-01-10T09:23:40.895Z,74.25
2023-01-10T09:26:13.628Z,73.79
2023-01-10T09:28:48.819Z,74.06
2023-01-10T09:31:23.156Z,73.70
2023-01-10T09:33:56.385Z,73.65
2023-01-10T09:36:29.649Z,73.56
2023-01-10T09:39:04.520Z,73.85
2023-01-10T09:41:55.137Z,73.85
2023-01-10T09:44:43.404Z,73.96
2023-01-10T09:47:25.975Z,74.04
2023-01-10T09:50:16.224Z,74.17
2023-01-10T09:52:58.425Z,73.44
2023-01-10T09:55:33.714Z,73.44
2023-01-10T09:58:12.092Z,73.73
2023-01-10T10:00:50.280Z,73.09
2023-01-10T10:03:31.278Z,73.05
2023-01-10T10:06:11.946Z,73.27
2023-01-10T10:08:48.142Z,72.80
2023-01-10T10:11:46.438Z,73.57
2023-01-10T10:14:33.796Z,73.24
2023-01-10T10:17:33.698Z,73.09
2023-01-10T10:20:37.265Z,73.38
2023-01-10T10:23:27.885Z,73.57
2023-01-10T10:26:08.690Z,73.96
2023-01-10T10:29:15.170Z,73.28
2023-01-10T10:32:11.062Z,73.51
2023-01-10T10:34:49.894Z,73.18
2023-01-10T10:37:32.817Z,73.32
2023-01-10T10:40:08.796Z,73.04
2023-01-10T10:42:47.262Z,72.94
2023-01-10T10:45:25.428Z,73.24
2023-01-10T10:48:04.495Z,73.39
2023-01-10T10:50:50.031Z,73.03
2023-01-10T10:53:24.510Z,72.75
2023-01-10T10:55:58.107Z,73.02
2023-01-10T10:58:32.188Z,72.69
2023-01-10T11:01:05.363Z,73.06
2023-01-10T11:03:43.886Z,73.09
2023-01-10T11:06:19.283Z,73.05
2023-01-10T11:08:57.349Z,73.13
2023-01-10T11:11:31.716Z,72.95
2023-01-10T11:14:06.837Z,73.27
2023-01-10T11:16:42.028Z,73.08
2023-01-10T11:19:23.723Z,72.85
2023-01-10T11:21:58.979Z,73.07
2023-01-10T11:24:35.581Z,72.79
2023-01-10T11:27:18.899Z,72.90
2023-01-10T11:29:53.344Z,73.33
2023-01-10T11:32:35.919Z,73.18
2023-01-10T11:35:22.198Z,73.30
2023-01-10T11:38:03.247Z,72.85
2023-01-10T11:40:38.900Z,73.10
2023-01-10T11:43:29.037Z,72.70
2023-01-10T11:46:05.274Z,72.14
2023-01-10T11:49:05.150Z,72.66
2023-01-10T11:51:45.060Z,72.22
2023-01-10T11:54:22.919Z,72.71
2023-01-10T11:56:59.821Z,72.73
2023-01-10T11:59:35.749Z,72.71
2023-01-10T12:02:19.493Z,71.94
2023-01-10T12:04:54.331Z,72.75
2023-01-10T12:07:28.040Z,73.01
2023-01-10T12:10:03.375Z,72.80
2023-01-10T12:12:40.000Z,72.82
2023-01-10T12:15:25.752Z,72.74
2023-01-10T12:18:01.879Z,72.82
2023-01-10T12:20:42.492Z,72.96
2023-01-10T12:23:19.328Z,72.77
2023-01-10T12:26:07.111Z,72.96
2023-01-10T12:28:52.384Z,72.25
2023-01-10T12:31:25.308Z,72.21
2023-01-10T12:34:00.488Z,72.30
2023-01-10T12:36:47.398Z,72.87
2023-01-10T12:39:33.523Z,72.69
2023-01-10T12:42:41.325Z,72.52
2023-01-10T12:45:24.575Z,72.38
2023-01-10T12:48:00.469Z,72.62
2023-01-10T12:50:38.124Z,72.24
2023-01-10T12:53:24.754Z,73.01
2023-01-10T12:56:04.349Z,73.08
2023-01-10T12:58:44.676Z,72.56
2023-01-10T13:01:23.572Z,72.81
2023-01-10T13:04:03.599Z,72.54
2023-01-10T13:06:42.189Z,73.39
2023-01-10T13:09:19.131Z,73.10
2023-01-10T13:11:59.748Z,73.12
2023-01-10T13:14:38.890Z,73.22
2023-01-10T13:17:24.373Z,73.13
2023-01-10T13:20:30.090Z,72.73
2023-01-10T13:23:13.582Z,73.17
2023-01-10T13:25:57.201Z,73.43
2023-01-10T13:28:33.176Z,73.57
2023-01-10T13:31:10.648Z,73.94
2023-01-10T13:33:54.742Z,73.39
2023-01-10T13:36:29.640Z,73.51
2023-01-10T13:39:13.384Z,74.04
2023-01-10T13:42:44.931Z,73.61
2023-01-10T13:45:31.549Z,74.28
2023-01-10T13:48:31.696Z,74.05
2023-01-10T13:51:21.855Z,73.67
2023-01-10T13:54:07.339Z,73.39
2023-01-10T13:57:23.513Z,73.94
2023-01-10T14:00:51.259Z,73.83
2023-01-10T14:49:16.020Z,74.62
2023-01-10T14:52:14.794Z,75.26
2023-01-10T14:55:26.032Z,74.65
2023-01-10T14:58:22.757Z,75.26
2023-01-10T15:05:43.029Z,74.87
2023-01-10T15:28:58.696Z,76.13
2023-01-10T15:43:20.315Z,76.97
2023-01-10T16:08:13.112Z,76.07
2023-01-10T16:11:49.201Z,76.38
2023-01-10T16:24:44.767Z,77.04
2023-01-10T16:30:32.033Z,76.58
2023-01-10T16:33:15.275Z,77.55
2023-01-10T16:35:55.392Z,77.01
2023-01-10T16:38:38.416Z,77.32
2023-01-10T16:42:20.398Z,77.29
2023-01-10T16:45:26.812Z,77.64
2023-01-10T17:35:21.893Z,78.32
2023-01-10T20:03:15.224Z,79.62
2023-01-10T20:06:31.083Z,79.73
2023-01-10T20:19:12.572Z,80.14
2023-01-10T20:21:55.068Z,80.31
2023-01-10T20:24:38.163Z,79.83
2023-01-10T20:27:40.036Z,80.56
2023-01-10T20:30:42.685Z,80.79
2023-01-10T20:33:20.461Z,80.11
2023-01-10T20:36:00.855Z,80.52
2023-01-10T20:39:05.964Z,80.59
2023-01-10T20:42:31.604Z,80.72
2023-01-10T20:45:56.293Z,79.98
2023-01-10T20:48:34.293Z,80.07
2023-01-10T20:51:24.321Z,80.63
2023-01-10T20:54:09.797Z,80.53
2023-01-10T20:56:43.332Z,80.70
2023-01-10T20:59:41.681Z,80.51
2023-01-10T21:02:23.111Z,81.05
2023-01-10T21:05:03.381Z,80.69
2023-01-10T21:07:38.141Z,80.95
2023-01-10T21:10:12.154Z,80.44
2023-01-10T21:12:46.080Z,80.24
2023-01-10T21:15:19.270Z,80.71
2023-01-10T21:17:53.115Z,81.02
2023-01-10T21:20:27.793Z,80.69
2023-01-10T21:23:04.683Z,80.82
2023-01-10T21:25:37.999Z,81.17
2023-01-10T21:28:14.880Z,80.99
2023-01-10T21:30:49.993Z,80.51
2023-01-10T21:33:23.472Z,80.92
2023-01-10T21:35:59.357Z,80.95
2023-01-10T21:38:37.139Z,80.61
2023-01-10T21:41:14.572Z,80.37
2023-01-10T21:43:47.899Z,80.79
2023-01-10T21:46:21.256Z,80.96
2023-01-10T21:48:54.495Z,80.89
2023-01-10T21:51:27.807Z,80.40
2023-01-10T21:54:04.004Z,80.53
2023-01-10T21:56:38.338Z,80.07
2023-01-10T21:59:13.427Z,80.53
2023-01-10T22:01:49.432Z,81.10
2023-01-10T22:04:31.068Z,81.26
2023-01-10T22:07:07.111Z,81.20
2023-01-10T22:09:45.036Z,81.42
2023-01-10T22:12:18.374Z,81.26
2023-01-10T22:14:53.311Z,81.46
2023-01-10T22:17:26.338Z,81.16
2023-01-10T22:19:59.131Z,81.21
2023-01-10T22:22:32.017Z,80.68
2023-01-10T22:25:07.908Z,80.98
2023-01-10T22:27:43.492Z,80.42
2023-01-10T22:30:39.655Z,80.77
2023-01-10T22:33:15.698Z,80.97
2023-01-10T22:35:51.442Z,80.92
2023-01-10T22:38:24.660Z,80.78
2023-01-10T22:40:59.410Z,81.06
2023-01-10T22:43:32.818Z,81.86
2023-01-10T22:46:06.987Z,81.25
2023-01-10T22:48:40.182Z,80.78
2023-01-10T22:51:13.447Z,81.43
2023-01-10T22:53:55.207Z,80.90
2023-01-10T22:56:29.697Z,81.59
2023-01-10T22:59:05.328Z,81.12
2023-01-10T23:01:39.805Z,81.39
2023-01-10T23:04:12.772Z,81.44
2023-01-10T23:06:48.588Z,81.53
2023-01-10T23:09:30.548Z,81.01
2023-01-10T23:12:08.767Z,81.08
2023-01-10T23:14:41.890Z,81.63
2023-01-10T23:17:15.317Z,81.02
2023-01-10T23:19:48.724Z,81.26
2023-01-10T23:22:26.743Z,81.61
2023-01-10T23:24:59.962Z,81.92
2023-01-10T23:27:34.408Z,81.21
2023-01-10T23:30:09.525Z,80.85
2023-01-10T23:32:42.657Z,80.33
2023-01-10T23:35:18.942Z,81.58
2023-01-10T23:37:55.012Z,80.96
2023-01-10T23:40:37.142Z,80.62
2023-01-10T23:43:27.555Z,80.61
2023-01-10T23:46:03.665Z,80.25
2023-01-10T23:48:43.110Z,80.96
2023-01-10T23:51:16.673Z,81.16
2023-01-10T23:53:52.620Z,80.91
2023-01-10T23:56:25.629Z,81.24
2023-01-10T23:59:03.895Z,80.84
